sensor_id;sensor_type;location;lat;lon;timestamp;temperature;humidity
13684;DHT22;6914;53.552;9.908;2022-10-16T00:01:27;13.50;99.90
13684;DHT22;6914;53.552;9.908;2022-10-16T00:03:55;13.50;99.90
13684;DHT22;6914;53.552;9.908;2022-10-16T00:06:23;13.50;99.90
13684;DHT22;6914;53.552;9.908;2022-10-16T00:08:50;13.60;99.90
13684;DHT22;6914;53.552;9.908;2022-10-16T00:11:20;13.50;99.90
13684;DHT22;6914;53.552;9.908;2022-10-16T00:13:49;13.50;99.90
13684;DHT22;6914;53.552;9.908;2022-10-16T00:16:17;13.50;99.90
13684;DHT22;6914;53.552;9.908;2022-10-16T00:18:44;13.50;99.90
13684;DHT22;6914;53.552;9.908;2022-10-16T00:21:14;13.50;99.90
13684;DHT22;6914;53.552;9.908;2022-10-16T00:23:42;13.50;99.90
13684;DHT22;6914;53.552;9.908;2022-10-16T00:26:12;13.50;99.90
13684;DHT22;6914;53.552;9.908;2022-10-16T00:28:40;13.50;99.90
13684;DHT22;6914;53.552;9.908;2022-10-16T00:31:09;13.50;99.90
13684;DHT22;6914;53.552;9.908;2022-10-16T00:33:38;13.50;99.90
13684;DHT22;6914;53.552;9.908;2022-10-16T00:36:07;13.50;99.90
13684;DHT22;6914;53.552;9.908;2022-10-16T00:38:34;13.50;99.90
13684;DHT22;6914;53.552;9.908;2022-10-16T00:41:03;13.50;99.90
13684;DHT22;6914;53.552;9.908;2022-10-16T00:43:36;13.50;99.90
13684;DHT22;6914;53.552;9.908;2022-10-16T00:46:09;12.90;99.90
13684;DHT22;6914;53.552;9.908;2022-10-16T00:48:37;13.40;99.90
13684;DHT22;6914;53.552;9.908;2022-10-16T00:51:06;13.40;99.90
13684;DHT22;6914;53.552;9.908;2022-10-16T00:53:34;13.40;99.90
13684;DHT22;6914;53.552;9.908;2022-10-16T00:56:01;13.50;99.90
13684;DHT22;6914;53.552;9.908;2022-10-16T00:58:28;13.50;99.90
13684;DHT22;6914;53.552;9.908;2022-10-16T01:00:55;13.40;99.90
13684;DHT22;6914;53.552;9.908;2022-10-16T01:03:26;13.50;99.90
13684;DHT22;6914;53.552;9.908;2022-10-16T01:06:03;13.50;99.90
13684;DHT22;6914;53.552;9.908;2022-10-16T01:08:39;13.50;99.90
13684;DHT22;6914;53.552;9.908;2022-10-16T01:11:15;13.50;99.90
13684;DHT22;6914;53.552;9.908;2022-10-16T01:13:48;13.50;99.90
13684;DHT22;6914;53.552;9.908;2022-10-16T01:16:24;13.40;99.90
13684;DHT22;6914;53.552;9.908;2022-10-16T01:19:01;13.40;99.90
13684;DHT22;6914;53.552;9.908;2022-10-16T01:21:31;13.30;99.90
13684;DHT22;6914;53.552;9.908;2022-10-16T01:24:05;13.30;99.90
13684;DHT22;6914;53.552;9.908;2022-10-16T01:26:42;13.30;99.90
13684;DHT22;6914;53.552;9.908;2022-10-16T01:29:17;13.30;99.90
13684;DHT22;6914;53.552;9.908;2022-10-16T01:31:49;13.20;99.90
13684;DHT22;6914;53.552;9.908;2022-10-16T01:34:20;13.30;99.90
13684;DHT22;6914;53.552;9.908;2022-10-16T01:36:52;13.20;99.90
13684;DHT22;6914;53.552;9.908;2022-10-16T01:39:22;13.20;99.90
13684;DHT22;6914;53.552;9.908;2022-10-16T01:41:55;13.10;99.90
13684;DHT22;6914;53.552;9.908;2022-10-16T01:44:28;13.10;99.90
13684;DHT22;6914;53.552;9.908;2022-10-16T01:46:56;13.10;99.90
13684;DHT22;6914;53.552;9.908;2022-10-16T01:49:26;13.00;99.90
13684;DHT22;6914;53.552;9.908;2022-10-16T01:51:57;13.00;99.90
13684;DHT22;6914;53.552;9.908;2022-10-16T01:54:28;12.90;99.90
13684;DHT22;6914;53.552;9.908;2022-10-16T01:56:56;12.90;99.90
13684;DHT22;6914;53.552;9.908;2022-10-16T01:59:26;12.80;99.90
13684;DHT22;6914;53.552;9.908;2022-10-16T02:01:58;12.80;99.90
13684;DHT22;6914;53.552;9.908;2022-10-16T02:04:29;12.80;99.90
13684;DHT22;6914;53.552;9.908;2022-10-16T02:06:58;12.90;99.90
13684;DHT22;6914;53.552;9.908;2022-10-16T02:09:25;12.90;99.90
13684;DHT22;6914;53.552;9.908;2022-10-16T02:11:54;12.90;99.90
13684;DHT22;6914;53.552;9.908;2022-10-16T02:14:21;12.80;99.90
13684;DHT22;6914;53.552;9.908;2022-10-16T02:16:51;12.80;99.90
13684;DHT22;6914;53.552;9.908;2022-10-16T02:19:19;12.80;99.90
13684;DHT22;6914;53.552;9.908;2022-10-16T02:21:51;12.80;99.90
13684;DHT22;6914;53.552;9.908;2022-10-16T02:24:28;12.80;99.90
13684;DHT22;6914;53.552;9.908;2022-10-16T02:27:02;12.70;99.90
13684;DHT22;6914;53.552;9.908;2022-10-16T02:29:32;12.80;99.90
13684;DHT22;6914;53.552;9.908;2022-10-16T02:32:04;12.80;99.90
13684;DHT22;6914;53.552;9.908;2022-10-16T02:34:32;12.70;99.90
13684;DHT22;6914;53.552;9.908;2022-10-16T02:37:01;12.70;99.90
13684;DHT22;6914;53.552;9.908;2022-10-16T02:39:31;12.60;99.90
13684;DHT22;6914;53.552;9.908;2022-10-16T02:41:58;12.60;99.90
13684;DHT22;6914;53.552;9.908;2022-10-16T02:44:24;12.50;99.90
13684;DHT22;6914;53.552;9.908;2022-10-16T02:46:51;12.50;99.90
13684;DHT22;6914;53.552;9.908;2022-10-16T02:49:20;12.60;99.90
13684;DHT22;6914;53.552;9.908;2022-10-16T02:51:46;12.50;99.90
13684;DHT22;6914;53.552;9.908;2022-10-16T02:54:13;12.50;99.90
13684;DHT22;6914;53.552;9.908;2022-10-16T02:56:40;12.50;99.90
13684;DHT22;6914;53.552;9.908;2022-10-16T02:59:07;12.40;99.90
13684;DHT22;6914;53.552;9.908;2022-10-16T03:01:34;12.50;99.90
13684;DHT22;6914;53.552;9.908;2022-10-16T03:04:01;12.50;99.90
13684;DHT22;6914;53.552;9.908;2022-10-16T03:06:29;12.40;99.90
13684;DHT22;6914;53.552;9.908;2022-10-16T03:08:56;12.40;99.90
13684;DHT22;6914;53.552;9.908;2022-10-16T03:11:22;12.30;99.90
13684;DHT22;6914;53.552;9.908;2022-10-16T03:13:49;12.20;99.90
13684;DHT22;6914;53.552;9.908;2022-10-16T03:16:16;12.20;99.90
13684;DHT22;6914;53.552;9.908;2022-10-16T03:18:43;12.20;99.90
13684;DHT22;6914;53.552;9.908;2022-10-16T03:21:10;12.20;99.90
13684;DHT22;6914;53.552;9.908;2022-10-16T03:23:38;12.20;99.90
13684;DHT22;6914;53.552;9.908;2022-10-16T03:26:05;12.20;99.90
13684;DHT22;6914;53.552;9.908;2022-10-16T03:28:32;12.20;99.90
13684;DHT22;6914;53.552;9.908;2022-10-16T03:30:58;12.10;99.90
13684;DHT22;6914;53.552;9.908;2022-10-16T03:33:25;12.10;99.90
13684;DHT22;6914;53.552;9.908;2022-10-16T03:35:53;12.10;99.90
13684;DHT22;6914;53.552;9.908;2022-10-16T03:38:20;12.10;99.90
13684;DHT22;6914;53.552;9.908;2022-10-16T03:40:48;12.10;99.90
13684;DHT22;6914;53.552;9.908;2022-10-16T03:43:15;12.20;99.90
13684;DHT22;6914;53.552;9.908;2022-10-16T03:45:42;12.20;99.90
13684;DHT22;6914;53.552;9.908;2022-10-16T03:48:09;12.20;99.90
13684;DHT22;6914;53.552;9.908;2022-10-16T03:50:36;12.20;99.90
13684;DHT22;6914;53.552;9.908;2022-10-16T03:53:03;12.20;99.90
13684;DHT22;6914;53.552;9.908;2022-10-16T03:55:30;12.20;99.90
13684;DHT22;6914;53.552;9.908;2022-10-16T03:57:58;12.30;99.90
13684;DHT22;6914;53.552;9.908;2022-10-16T04:00:25;12.20;99.90
13684;DHT22;6914;53.552;9.908;2022-10-16T04:02:52;12.30;99.90
13684;DHT22;6914;53.552;9.908;2022-10-16T04:05:19;12.30;99.90
13684;DHT22;6914;53.552;9.908;2022-10-16T04:07:46;12.20;99.90
13684;DHT22;6914;53.552;9.908;2022-10-16T04:10:13;12.30;99.90
13684;DHT22;6914;53.552;9.908;2022-10-16T04:12:40;12.30;99.90
13684;DHT22;6914;53.552;9.908;2022-10-16T04:15:08;12.20;99.90
13684;DHT22;6914;53.552;9.908;2022-10-16T04:17:36;12.20;99.90
13684;DHT22;6914;53.552;9.908;2022-10-16T04:20:03;12.20;99.90
13684;DHT22;6914;53.552;9.908;2022-10-16T04:22:30;12.20;99.90
13684;DHT22;6914;53.552;9.908;2022-10-16T04:24:57;12.20;99.90
13684;DHT22;6914;53.552;9.908;2022-10-16T04:27:24;12.20;99.90
13684;DHT22;6914;53.552;9.908;2022-10-16T04:29:51;12.20;99.90
13684;DHT22;6914;53.552;9.908;2022-10-16T04:32:19;12.20;99.90
13684;DHT22;6914;53.552;9.908;2022-10-16T04:34:46;12.30;99.90
13684;DHT22;6914;53.552;9.908;2022-10-16T04:37:13;12.20;99.90
13684;DHT22;6914;53.552;9.908;2022-10-16T04:39:40;12.20;99.90
13684;DHT22;6914;53.552;9.908;2022-10-16T04:42:06;13.40;99.90
13684;DHT22;6914;53.552;9.908;2022-10-16T04:44:33;12.20;99.90
13684;DHT22;6914;53.552;9.908;2022-10-16T04:47:00;12.20;99.90
13684;DHT22;6914;53.552;9.908;2022-10-16T04:49:28;12.10;99.90
13684;DHT22;6914;53.552;9.908;2022-10-16T04:51:55;12.10;99.90
13684;DHT22;6914;53.552;9.908;2022-10-16T04:54:22;12.10;99.90
13684;DHT22;6914;53.552;9.908;2022-10-16T04:56:49;12.10;99.90
13684;DHT22;6914;53.552;9.908;2022-10-16T04:59:17;12.20;99.90
13684;DHT22;6914;53.552;9.908;2022-10-16T05:01:45;12.10;99.90
13684;DHT22;6914;53.552;9.908;2022-10-16T05:04:12;12.00;99.90
13684;DHT22;6914;53.552;9.908;2022-10-16T05:06:42;12.00;99.90
13684;DHT22;6914;53.552;9.908;2022-10-16T05:09:09;12.00;99.90
13684;DHT22;6914;53.552;9.908;2022-10-16T05:11:36;12.10;99.90
13684;DHT22;6914;53.552;9.908;2022-10-16T05:14:03;12.10;99.90
13684;DHT22;6914;53.552;9.908;2022-10-16T05:16:29;12.10;99.90
13684;DHT22;6914;53.552;9.908;2022-10-16T05:18:56;12.10;99.90
13684;DHT22;6914;53.552;9.908;2022-10-16T05:21:23;12.10;99.90
13684;DHT22;6914;53.552;9.908;2022-10-16T05:23:53;12.10;99.90
13684;DHT22;6914;53.552;9.908;2022-10-16T05:26:19;12.20;99.90
13684;DHT22;6914;53.552;9.908;2022-10-16T05:28:47;12.10;99.90
13684;DHT22;6914;53.552;9.908;2022-10-16T05:31:14;12.10;99.90
13684;DHT22;6914;53.552;9.908;2022-10-16T05:33:41;12.10;99.90
13684;DHT22;6914;53.552;9.908;2022-10-16T05:36:09;12.10;99.90
13684;DHT22;6914;53.552;9.908;2022-10-16T05:38:37;12.10;99.90
13684;DHT22;6914;53.552;9.908;2022-10-16T05:41:05;12.10;99.90
13684;DHT22;6914;53.552;9.908;2022-10-16T05:43:32;12.20;99.90
13684;DHT22;6914;53.552;9.908;2022-10-16T05:46:01;12.20;99.90
13684;DHT22;6914;53.552;9.908;2022-10-16T05:48:28;12.20;99.90
13684;DHT22;6914;53.552;9.908;2022-10-16T05:50:59;12.30;99.90
13684;DHT22;6914;53.552;9.908;2022-10-16T05:53:27;12.40;99.90
13684;DHT22;6914;53.552;9.908;2022-10-16T05:55:54;12.40;99.90
13684;DHT22;6914;53.552;9.908;2022-10-16T05:58:22;12.40;99.90
13684;DHT22;6914;53.552;9.908;2022-10-16T06:00:53;12.50;99.90
13684;DHT22;6914;53.552;9.908;2022-10-16T06:03:20;12.50;99.90
13684;DHT22;6914;53.552;9.908;2022-10-16T06:05:47;13.20;99.90
13684;DHT22;6914;53.552;9.908;2022-10-16T06:08:14;12.50;99.90
13684;DHT22;6914;53.552;9.908;2022-10-16T06:10:41;12.50;99.90
13684;DHT22;6914;53.552;9.908;2022-10-16T06:13:09;12.60;99.90
13684;DHT22;6914;53.552;9.908;2022-10-16T06:15:37;12.60;99.90
13684;DHT22;6914;53.552;9.908;2022-10-16T06:18:04;12.60;99.90
13684;DHT22;6914;53.552;9.908;2022-10-16T06:20:31;12.60;99.90
13684;DHT22;6914;53.552;9.908;2022-10-16T06:22:58;12.70;99.90
13684;DHT22;6914;53.552;9.908;2022-10-16T06:25:25;12.70;99.90
13684;DHT22;6914;53.552;9.908;2022-10-16T06:27:52;12.70;99.90
13684;DHT22;6914;53.552;9.908;2022-10-16T06:30:18;12.70;99.90
13684;DHT22;6914;53.552;9.908;2022-10-16T06:32:47;12.70;99.90
13684;DHT22;6914;53.552;9.908;2022-10-16T06:35:13;12.70;99.90
13684;DHT22;6914;53.552;9.908;2022-10-16T06:37:41;12.80;99.90
13684;DHT22;6914;53.552;9.908;2022-10-16T06:40:08;12.80;99.90
13684;DHT22;6914;53.552;9.908;2022-10-16T06:42:35;12.80;99.90
13684;DHT22;6914;53.552;9.908;2022-10-16T06:45:02;12.80;99.90
13684;DHT22;6914;53.552;9.908;2022-10-16T06:47:29;12.90;99.90
13684;DHT22;6914;53.552;9.908;2022-10-16T06:49:57;12.90;99.90
13684;DHT22;6914;53.552;9.908;2022-10-16T06:52:24;12.90;99.90
13684;DHT22;6914;53.552;9.908;2022-10-16T06:54:50;12.90;99.90
13684;DHT22;6914;53.552;9.908;2022-10-16T06:57:17;13.00;99.90
13684;DHT22;6914;53.552;9.908;2022-10-16T06:59:44;13.00;99.90
13684;DHT22;6914;53.552;9.908;2022-10-16T07:02:11;13.10;99.90
13684;DHT22;6914;53.552;9.908;2022-10-16T07:04:37;13.20;99.90
13684;DHT22;6914;53.552;9.908;2022-10-16T07:07:06;13.30;99.90
13684;DHT22;6914;53.552;9.908;2022-10-16T07:09:33;13.50;99.90
13684;DHT22;6914;53.552;9.908;2022-10-16T07:12:00;13.60;99.90
13684;DHT22;6914;53.552;9.908;2022-10-16T07:14:26;13.80;99.90
13684;DHT22;6914;53.552;9.908;2022-10-16T07:16:53;13.80;99.90
13684;DHT22;6914;53.552;9.908;2022-10-16T07:19:20;13.80;99.90
13684;DHT22;6914;53.552;9.908;2022-10-16T07:21:47;13.70;99.90
13684;DHT22;6914;53.552;9.908;2022-10-16T07:24:16;13.80;99.90
13684;DHT22;6914;53.552;9.908;2022-10-16T07:26:44;13.70;99.90
13684;DHT22;6914;53.552;9.908;2022-10-16T07:29:13;13.70;99.90
13684;DHT22;6914;53.552;9.908;2022-10-16T07:31:41;13.60;99.90
13684;DHT22;6914;53.552;9.908;2022-10-16T07:34:08;13.60;99.90
13684;DHT22;6914;53.552;9.908;2022-10-16T07:36:36;13.70;99.90
13684;DHT22;6914;53.552;9.908;2022-10-16T07:39:03;13.70;99.90
13684;DHT22;6914;53.552;9.908;2022-10-16T07:41:31;13.80;99.90
13684;DHT22;6914;53.552;9.908;2022-10-16T07:44:02;13.90;99.90
13684;DHT22;6914;53.552;9.908;2022-10-16T07:46:29;14.00;99.90
13684;DHT22;6914;53.552;9.908;2022-10-16T07:48:57;14.20;99.90
13684;DHT22;6914;53.552;9.908;2022-10-16T07:51:24;14.30;99.90
13684;DHT22;6914;53.552;9.908;2022-10-16T07:53:52;14.40;99.90
13684;DHT22;6914;53.552;9.908;2022-10-16T07:56:19;14.40;99.90
13684;DHT22;6914;53.552;9.908;2022-10-16T07:58:49;14.50;99.90
13684;DHT22;6914;53.552;9.908;2022-10-16T08:01:17;14.30;99.90
13684;DHT22;6914;53.552;9.908;2022-10-16T08:03:45;14.30;99.90
13684;DHT22;6914;53.552;9.908;2022-10-16T08:06:12;14.30;99.90
13684;DHT22;6914;53.552;9.908;2022-10-16T08:08:39;14.30;99.90
13684;DHT22;6914;53.552;9.908;2022-10-16T08:11:06;14.30;99.90
13684;DHT22;6914;53.552;9.908;2022-10-16T08:13:33;14.30;99.90
13684;DHT22;6914;53.552;9.908;2022-10-16T08:16:01;14.30;99.90
13684;DHT22;6914;53.552;9.908;2022-10-16T08:18:33;14.30;99.90
13684;DHT22;6914;53.552;9.908;2022-10-16T08:21:00;14.20;99.90
13684;DHT22;6914;53.552;9.908;2022-10-16T08:23:27;14.20;99.90
13684;DHT22;6914;53.552;9.908;2022-10-16T08:25:55;14.30;99.90
13684;DHT22;6914;53.552;9.908;2022-10-16T08:28:23;14.40;99.90
13684;DHT22;6914;53.552;9.908;2022-10-16T08:30:50;14.70;99.90
13684;DHT22;6914;53.552;9.908;2022-10-16T08:33:18;15.00;99.90
13684;DHT22;6914;53.552;9.908;2022-10-16T08:35:51;15.40;99.90
13684;DHT22;6914;53.552;9.908;2022-10-16T08:38:19;15.30;99.90
13684;DHT22;6914;53.552;9.908;2022-10-16T08:40:46;15.40;99.90
13684;DHT22;6914;53.552;9.908;2022-10-16T08:43:28;15.60;99.90
13684;DHT22;6914;53.552;9.908;2022-10-16T08:46:18;15.90;99.90
13684;DHT22;6914;53.552;9.908;2022-10-16T08:48:51;16.10;99.90
13684;DHT22;6914;53.552;9.908;2022-10-16T08:51:20;16.50;99.90
13684;DHT22;6914;53.552;9.908;2022-10-16T08:53:52;17.30;99.90
13684;DHT22;6914;53.552;9.908;2022-10-16T08:56:20;18.10;99.90
13684;DHT22;6914;53.552;9.908;2022-10-16T08:58:48;18.60;99.90
13684;DHT22;6914;53.552;9.908;2022-10-16T09:01:16;19.40;99.90
13684;DHT22;6914;53.552;9.908;2022-10-16T09:03:58;19.30;99.90
13684;DHT22;6914;53.552;9.908;2022-10-16T09:06:35;19.50;99.90
13684;DHT22;6914;53.552;9.908;2022-10-16T09:09:28;19.10;99.90
13684;DHT22;6914;53.552;9.908;2022-10-16T09:12:06;19.60;99.90
13684;DHT22;6914;53.552;9.908;2022-10-16T09:14:45;20.10;99.90
13684;DHT22;6914;53.552;9.908;2022-10-16T09:17:25;20.50;99.90
13684;DHT22;6914;53.552;9.908;2022-10-16T09:20:03;20.80;99.90
13684;DHT22;6914;53.552;9.908;2022-10-16T09:22:33;21.00;99.90
13684;DHT22;6914;53.552;9.908;2022-10-16T09:25:10;21.00;99.90
13684;DHT22;6914;53.552;9.908;2022-10-16T09:27:37;21.40;99.90
13684;DHT22;6914;53.552;9.908;2022-10-16T09:30:12;22.10;99.90
13684;DHT22;6914;53.552;9.908;2022-10-16T09:32:39;22.30;99.90
13684;DHT22;6914;53.552;9.908;2022-10-16T09:35:13;21.90;99.90
13684;DHT22;6914;53.552;9.908;2022-10-16T09:37:42;22.20;96.70
13684;DHT22;6914;53.552;9.908;2022-10-16T09:40:12;22.50;97.90
13684;DHT22;6914;53.552;9.908;2022-10-16T09:42:40;22.40;92.30
13684;DHT22;6914;53.552;9.908;2022-10-16T09:45:20;22.30;95.50
13684;DHT22;6914;53.552;9.908;2022-10-16T09:47:48;22.20;99.70
13684;DHT22;6914;53.552;9.908;2022-10-16T09:50:23;22.10;97.70
13684;DHT22;6914;53.552;9.908;2022-10-16T09:53:02;22.00;96.10
13684;DHT22;6914;53.552;9.908;2022-10-16T09:55:30;22.20;98.10
13684;DHT22;6914;53.552;9.908;2022-10-16T09:57:56;22.20;99.60
13684;DHT22;6914;53.552;9.908;2022-10-16T10:00:24;22.70;92.20
13684;DHT22;6914;53.552;9.908;2022-10-16T10:02:51;22.00;98.70
13684;DHT22;6914;53.552;9.908;2022-10-16T10:05:22;22.50;99.30
13684;DHT22;6914;53.552;9.908;2022-10-16T10:07:55;23.20;97.30
13684;DHT22;6914;53.552;9.908;2022-10-16T10:10:26;23.80;85.60
13684;DHT22;6914;53.552;9.908;2022-10-16T10:12:53;22.40;94.70
13684;DHT22;6914;53.552;9.908;2022-10-16T10:15:22;22.10;98.90
13684;DHT22;6914;53.552;9.908;2022-10-16T10:17:52;22.30;96.70
13684;DHT22;6914;53.552;9.908;2022-10-16T10:20:25;22.60;98.30
13684;DHT22;6914;53.552;9.908;2022-10-16T10:22:53;22.80;90.40
13684;DHT22;6914;53.552;9.908;2022-10-16T10:25:32;22.80;93.70
13684;DHT22;6914;53.552;9.908;2022-10-16T10:31:01;23.20;91.60
13684;DHT22;6914;53.552;9.908;2022-10-16T10:33:37;23.30;83.30
13684;DHT22;6914;53.552;9.908;2022-10-16T10:36:20;23.10;80.40
13684;DHT22;6914;53.552;9.908;2022-10-16T10:38:51;22.40;89.00
13684;DHT22;6914;53.552;9.908;2022-10-16T10:44:19;22.10;97.40
13684;DHT22;6914;53.552;9.908;2022-10-16T10:46:51;23.00;91.40
13684;DHT22;6914;53.552;9.908;2022-10-16T10:49:35;22.70;90.00
13684;DHT22;6914;53.552;9.908;2022-10-16T10:52:13;23.10;79.90
13684;DHT22;6914;53.552;9.908;2022-10-16T10:54:51;23.40;77.20
13684;DHT22;6914;53.552;9.908;2022-10-16T10:57:24;23.00;73.70
13684;DHT22;6914;53.552;9.908;2022-10-16T11:00:02;22.40;75.50
13684;DHT22;6914;53.552;9.908;2022-10-16T11:02:35;21.80;86.90
13684;DHT22;6914;53.552;9.908;2022-10-16T11:05:28;22.10;90.50
13684;DHT22;6914;53.552;9.908;2022-10-16T11:08:00;22.80;81.00
13684;DHT22;6914;53.552;9.908;2022-10-16T11:10:31;23.40;74.60
13684;DHT22;6914;53.552;9.908;2022-10-16T11:13:17;23.20;68.70
13684;DHT22;6914;53.552;9.908;2022-10-16T11:15:48;23.20;71.40
13684;DHT22;6914;53.552;9.908;2022-10-16T11:18:20;23.10;67.80
13684;DHT22;6914;53.552;9.908;2022-10-16T11:20:52;23.00;67.40
13684;DHT22;6914;53.552;9.908;2022-10-16T11:23:26;22.50;67.80
13684;DHT22;6914;53.552;9.908;2022-10-16T11:25:57;21.60;75.30
13684;DHT22;6914;53.552;9.908;2022-10-16T11:28:29;21.60;87.30
13684;DHT22;6914;53.552;9.908;2022-10-16T11:31:03;22.20;79.80
13684;DHT22;6914;53.552;9.908;2022-10-16T11:33:36;22.00;71.10
13684;DHT22;6914;53.552;9.908;2022-10-16T11:36:11;21.60;73.70
13684;DHT22;6914;53.552;9.908;2022-10-16T11:38:46;20.70;92.60
13684;DHT22;6914;53.552;9.908;2022-10-16T11:41:27;20.20;99.90
13684;DHT22;6914;53.552;9.908;2022-10-16T11:44:06;19.90;99.90
13684;DHT22;6914;53.552;9.908;2022-10-16T11:46:38;19.70;99.90
13684;DHT22;6914;53.552;9.908;2022-10-16T11:49:11;19.50;99.90
13684;DHT22;6914;53.552;9.908;2022-10-16T11:51:43;19.60;99.90
13684;DHT22;6914;53.552;9.908;2022-10-16T11:54:20;19.50;99.90
13684;DHT22;6914;53.552;9.908;2022-10-16T11:56:50;19.20;99.90
13684;DHT22;6914;53.552;9.908;2022-10-16T11:59:24;19.00;99.90
13684;DHT22;6914;53.552;9.908;2022-10-16T12:02:15;18.80;99.90
13684;DHT22;6914;53.552;9.908;2022-10-16T12:04:49;19.30;99.90
13684;DHT22;6914;53.552;9.908;2022-10-16T12:07:25;19.10;99.90
13684;DHT22;6914;53.552;9.908;2022-10-16T12:09:55;18.80;99.90
13684;DHT22;6914;53.552;9.908;2022-10-16T12:12:26;19.00;99.90
13684;DHT22;6914;53.552;9.908;2022-10-16T12:15:00;19.70;99.90
13684;DHT22;6914;53.552;9.908;2022-10-16T12:17:34;20.20;99.40
13684;DHT22;6914;53.552;9.908;2022-10-16T12:20:20;20.00;99.30
13684;DHT22;6914;53.552;9.908;2022-10-16T12:22:49;19.80;99.90
13684;DHT22;6914;53.552;9.908;2022-10-16T12:25:24;19.70;99.90
13684;DHT22;6914;53.552;9.908;2022-10-16T12:28:17;20.20;99.90
13684;DHT22;6914;53.552;9.908;2022-10-16T12:30:53;20.40;97.40
13684;DHT22;6914;53.552;9.908;2022-10-16T12:33:23;21.00;89.00
13684;DHT22;6914;53.552;9.908;2022-10-16T12:35:51;21.20;80.50
13684;DHT22;6914;53.552;9.908;2022-10-16T12:38:19;20.90;77.00
13684;DHT22;6914;53.552;9.908;2022-10-16T12:40:56;20.60;78.10
13684;DHT22;6914;53.552;9.908;2022-10-16T12:43:38;21.10;75.70
13684;DHT22;6914;53.552;9.908;2022-10-16T12:49:21;21.50;68.90
13684;DHT22;6914;53.552;9.908;2022-10-16T12:51:50;21.70;67.90
13684;DHT22;6914;53.552;9.908;2022-10-16T12:54:18;21.60;68.50
13684;DHT22;6914;53.552;9.908;2022-10-16T12:56:57;21.60;65.90
13684;DHT22;6914;53.552;9.908;2022-10-16T12:59:34;22.10;65.80
13684;DHT22;6914;53.552;9.908;2022-10-16T13:05:21;21.50;66.50
13684;DHT22;6914;53.552;9.908;2022-10-16T13:08:00;21.60;67.40
13684;DHT22;6914;53.552;9.908;2022-10-16T13:10:36;21.60;66.60
13684;DHT22;6914;53.552;9.908;2022-10-16T13:13:21;21.20;67.80
13684;DHT22;6914;53.552;9.908;2022-10-16T13:15:59;21.00;67.30
13684;DHT22;6914;53.552;9.908;2022-10-16T13:18:32;20.70;70.80
13684;DHT22;6914;53.552;9.908;2022-10-16T13:21:19;20.50;76.40
13684;DHT22;6914;53.552;9.908;2022-10-16T13:23:55;20.50;86.70
13684;DHT22;6914;53.552;9.908;2022-10-16T13:26:33;20.40;91.70
13684;DHT22;6914;53.552;9.908;2022-10-16T13:29:04;20.30;86.20
13684;DHT22;6914;53.552;9.908;2022-10-16T13:31:32;20.30;90.00
13684;DHT22;6914;53.552;9.908;2022-10-16T13:34:00;20.30;92.10
13684;DHT22;6914;53.552;9.908;2022-10-16T13:36:29;20.40;93.70
13684;DHT22;6914;53.552;9.908;2022-10-16T13:39:06;19.90;95.00
13684;DHT22;6914;53.552;9.908;2022-10-16T13:41:36;19.90;99.30
13684;DHT22;6914;53.552;9.908;2022-10-16T13:44:05;20.00;98.30
13684;DHT22;6914;53.552;9.908;2022-10-16T13:46:31;20.00;98.00
13684;DHT22;6914;53.552;9.908;2022-10-16T13:49:01;20.10;94.20
13684;DHT22;6914;53.552;9.908;2022-10-16T13:51:29;20.20;89.10
13684;DHT22;6914;53.552;9.908;2022-10-16T13:53:57;20.10;81.30
13684;DHT22;6914;53.552;9.908;2022-10-16T13:56:26;20.00;83.20
13684;DHT22;6914;53.552;9.908;2022-10-16T13:59:00;20.10;90.30
13684;DHT22;6914;53.552;9.908;2022-10-16T14:01:30;20.20;92.90
13684;DHT22;6914;53.552;9.908;2022-10-16T14:04:02;20.40;91.00
13684;DHT22;6914;53.552;9.908;2022-10-16T14:06:31;20.20;86.10
13684;DHT22;6914;53.552;9.908;2022-10-16T14:09:01;20.00;87.60
13684;DHT22;6914;53.552;9.908;2022-10-16T14:11:31;20.00;92.70
13684;DHT22;6914;53.552;9.908;2022-10-16T14:13:58;19.70;92.00
13684;DHT22;6914;53.552;9.908;2022-10-16T14:16:29;19.80;94.20
13684;DHT22;6914;53.552;9.908;2022-10-16T14:18:59;19.90;95.00
13684;DHT22;6914;53.552;9.908;2022-10-16T14:21:27;20.00;92.70
13684;DHT22;6914;53.552;9.908;2022-10-16T14:23:54;19.90;91.30
13684;DHT22;6914;53.552;9.908;2022-10-16T14:26:24;19.80;92.10
13684;DHT22;6914;53.552;9.908;2022-10-16T14:29:09;19.60;98.00
13684;DHT22;6914;53.552;9.908;2022-10-16T14:31:38;19.60;96.90
13684;DHT22;6914;53.552;9.908;2022-10-16T14:34:24;19.70;97.80
13684;DHT22;6914;53.552;9.908;2022-10-16T14:36:53;19.70;98.80
13684;DHT22;6914;53.552;9.908;2022-10-16T14:39:21;19.70;99.30
13684;DHT22;6914;53.552;9.908;2022-10-16T14:41:51;19.60;96.70
13684;DHT22;6914;53.552;9.908;2022-10-16T14:44:19;19.60;97.90
13684;DHT22;6914;53.552;9.908;2022-10-16T14:46:51;19.70;98.60
13684;DHT22;6914;53.552;9.908;2022-10-16T14:49:19;19.60;99.20
13684;DHT22;6914;53.552;9.908;2022-10-16T14:51:47;19.60;99.90
13684;DHT22;6914;53.552;9.908;2022-10-16T14:54:15;19.10;98.50
13684;DHT22;6914;53.552;9.908;2022-10-16T14:56:46;19.40;99.20
13684;DHT22;6914;53.552;9.908;2022-10-16T14:59:17;19.30;99.30
13684;DHT22;6914;53.552;9.908;2022-10-16T15:01:46;19.20;99.90
13684;DHT22;6914;53.552;9.908;2022-10-16T15:04:15;19.00;99.90
13684;DHT22;6914;53.552;9.908;2022-10-16T15:06:43;18.90;99.90
13684;DHT22;6914;53.552;9.908;2022-10-16T15:09:10;18.80;99.90
13684;DHT22;6914;53.552;9.908;2022-10-16T15:11:37;18.70;99.90
13684;DHT22;6914;53.552;9.908;2022-10-16T15:14:04;18.70;99.90
13684;DHT22;6914;53.552;9.908;2022-10-16T15:16:32;18.50;99.90
13684;DHT22;6914;53.552;9.908;2022-10-16T15:18:58;18.40;99.90
13684;DHT22;6914;53.552;9.908;2022-10-16T15:21:31;18.40;99.90
13684;DHT22;6914;53.552;9.908;2022-10-16T15:23:59;18.30;99.90
13684;DHT22;6914;53.552;9.908;2022-10-16T15:26:27;18.20;99.90
13684;DHT22;6914;53.552;9.908;2022-10-16T15:28:55;18.10;99.90
13684;DHT22;6914;53.552;9.908;2022-10-16T15:31:22;18.00;99.90
13684;DHT22;6914;53.552;9.908;2022-10-16T15:33:50;17.90;99.90
13684;DHT22;6914;53.552;9.908;2022-10-16T15:36:26;17.80;99.90
13684;DHT22;6914;53.552;9.908;2022-10-16T15:38:54;17.70;99.90
13684;DHT22;6914;53.552;9.908;2022-10-16T15:41:20;17.60;99.90
13684;DHT22;6914;53.552;9.908;2022-10-16T15:43:48;17.50;99.90
13684;DHT22;6914;53.552;9.908;2022-10-16T15:46:18;17.40;99.90
13684;DHT22;6914;53.552;9.908;2022-10-16T15:48:45;17.30;99.90
13684;DHT22;6914;53.552;9.908;2022-10-16T15:51:12;17.20;99.90
13684;DHT22;6914;53.552;9.908;2022-10-16T15:53:41;17.10;99.90
13684;DHT22;6914;53.552;9.908;2022-10-16T15:56:09;16.90;99.90
13684;DHT22;6914;53.552;9.908;2022-10-16T15:58:36;16.80;99.90
13684;DHT22;6914;53.552;9.908;2022-10-16T16:01:03;16.70;99.90
13684;DHT22;6914;53.552;9.908;2022-10-16T16:03:31;16.60;99.90
13684;DHT22;6914;53.552;9.908;2022-10-16T16:06:04;16.50;99.90
13684;DHT22;6914;53.552;9.908;2022-10-16T16:08:32;16.40;99.90
13684;DHT22;6914;53.552;9.908;2022-10-16T16:11:03;16.30;99.90
13684;DHT22;6914;53.552;9.908;2022-10-16T16:13:30;16.30;99.90
13684;DHT22;6914;53.552;9.908;2022-10-16T16:15:57;16.30;99.90